Time;durP1;ratioP1;P1;durP2;ratioP2;P2;SDS_P1;SDS_P2;PMS_P1;PMS_P2;Temp;Humidity;BMP_temperature;BMP_pressure;BME280_temperature;BME280_humidity;BME280_pressure;Samples;Min_cycle;Max_cycle;Signal;HPM_P1;HPM_P2
2021/07/14 00:00:50;;;;;;;15.57;3.58;;;;;;;20.44;50.73;98354.47;5136258;27;20031;-92
2021/07/14 00:03:15;;;;;;;10.20;3.03;;;;;;;20.48;51.17;98382.97;5140729;27;20055;-90
2021/07/14 00:05:41;;;;;;;15.30;3.55;;;;;;;20.40;51.10;98365.59;5147060;27;20096;-92
2021/07/14 00:08:08;;;;;;;7.55;2.92;;;;;;;20.42;50.78;98360.94;5147377;27;20039;-92
2021/07/14 00:10:34;;;;;;;8.77;3.05;;;;;;;20.36;50.91;98351.44;5142394;27;20043;-92
2021/07/14 00:24:44;;;;;;;10.00;3.10;;;;;;;20.30;51.15;98392.44;5179671;27;20371;-90
2021/07/14 00:27:12;;;;;;;11.45;3.03;;;;;;;20.29;51.13;98386.16;5143549;27;20074;-91
2021/07/14 00:32:45;;;;;;;10.20;3.15;;;;;;;20.34;51.40;98390.34;5157530;27;20112;-90
2021/07/14 00:35:14;;;;;;;13.98;3.65;;;;;;;20.40;51.82;98389.91;5133114;28;20585;-91
2021/07/14 00:37:39;;;;;;;8.48;3.05;;;;;;;20.36;51.97;98383.84;5130243;28;20126;-91
2021/07/14 00:40:07;;;;;;;9.75;2.95;;;;;;;20.25;52.09;98373.84;5131472;28;20134;-90
2021/07/14 00:42:33;;;;;;;11.83;3.17;;;;;;;20.26;52.38;98385.53;5133417;27;20054;-90
2021/07/14 00:44:59;;;;;;;13.48;3.28;;;;;;;20.28;52.30;98403.34;5130971;27;20043;-89
2021/07/14 00:47:30;;;;;;;11.20;3.25;;;;;;;20.13;53.00;98398.19;5132670;27;20073;-90
2021/07/14 00:49:58;;;;;;;9.23;3.63;;;;;;;19.98;53.72;98375.88;5128289;28;20089;-90
2021/07/14 00:52:24;;;;;;;9.02;3.10;;;;;;;19.89;53.82;98380.09;5129057;28;20038;-91
2021/07/14 00:54:50;;;;;;;15.10;4.03;;;;;;;19.93;54.74;98399.59;5131069;27;20062;-90
2021/07/14 00:57:19;;;;;;;14.80;3.78;;;;;;;19.82;54.87;98387.75;5130944;27;20047;-90
2021/07/14 00:59:45;;;;;;;13.45;4.68;;;;;;;19.89;54.55;98393.59;5130814;27;20047;-90
2021/07/14 01:02:11;;;;;;;12.38;4.07;;;;;;;19.80;54.84;98384.31;5129228;28;20036;-89
2021/07/14 01:04:41;;;;;;;10.13;3.42;;;;;;;19.91;54.93;98405.13;5130704;27;20066;-90
2021/07/14 01:07:16;;;;;;;11.48;3.92;;;;;;;19.73;55.47;98392.94;5130339;28;20048;-90
2021/07/14 01:09:47;;;;;;;15.45;4.35;;;;;;;19.64;55.92;98405.19;5128598;28;20484;-91
2021/07/14 01:12:23;;;;;;;8.55;3.50;;;;;;;19.40;56.77;98408.63;5131563;27;20050;-88
2021/07/14 01:14:59;;;;;;;19.35;4.63;;;;;;;19.32;57.12;98402.88;5128366;28;20051;-91
2021/07/14 01:17:27;;;;;;;12.38;3.70;;;;;;;19.28;57.24;98412.19;5130678;28;20043;-89
2021/07/14 01:20:17;;;;;;;9.60;3.97;;;;;;;19.16;57.35;98386.91;5131871;27;20126;-91
2021/07/14 01:22:55;;;;;;;11.77;3.63;;;;;;;19.24;57.65;98408.81;5113782;28;20039;-90
2021/07/14 01:25:40;;;;;;;13.15;3.80;;;;;;;19.26;57.31;98411.44;5131582;28;20040;-91
2021/07/14 01:28:08;;;;;;;15.40;4.32;;;;;;;19.34;57.67;98403.66;5128863;28;20104;-90
2021/07/14 01:30:34;;;;;;;17.27;4.23;;;;;;;19.42;57.28;98404.00;5128201;27;20118;-89
2021/07/14 01:33:02;;;;;;;12.35;3.92;;;;;;;19.42;56.96;98395.91;5130103;27;20512;-90
2021/07/14 01:35:32;;;;;;;14.23;3.67;;;;;;;19.27;57.49;98384.34;5128674;28;20043;-91
2021/07/14 01:38:01;;;;;;;10.98;3.97;;;;;;;19.23;57.78;98390.06;5130086;27;20063;-90
2021/07/14 01:40:28;;;;;;;18.33;3.88;;;;;;;18.83;59.21;98377.44;5130173;27;20123;-93
2021/07/14 01:42:56;;;;;;;13.50;3.92;;;;;;;18.76;59.66;98394.09;5121404;27;20036;-91
2021/07/14 01:45:27;;;;;;;16.03;4.00;;;;;;;18.63;59.65;98370.69;5112905;28;20044;-91
2021/07/14 01:47:55;;;;;;;12.57;3.53;;;;;;;18.61;59.68;98372.59;5114713;28;20047;-91
2021/07/14 01:50:22;;;;;;;15.07;4.03;;;;;;;18.61;59.95;98386.06;5115953;28;20031;-92
2021/07/14 01:52:51;;;;;;;13.63;3.58;;;;;;;18.45;60.10;98362.00;5115711;28;20039;-92
2021/07/14 01:55:18;;;;;;;13.73;3.70;;;;;;;18.39;60.17;98354.31;5115720;28;20085;-91
2021/07/14 01:57:45;;;;;;;10.95;3.55;;;;;;;18.36;60.43;98357.19;5116121;28;20439;-91
2021/07/14 02:00:12;;;;;;;12.85;4.35;;;;;;;18.31;60.61;98356.66;5113081;28;20028;-92
2021/07/14 02:02:50;;;;;;;9.13;3.92;;;;;;;18.37;60.42;98375.09;5115670;28;20032;-92
2021/07/14 02:05:17;;;;;;;10.23;3.78;;;;;;;18.25;60.81;98371.34;5115035;28;20036;-91
2021/07/14 02:07:43;;;;;;;11.98;3.72;;;;;;;18.26;60.95;98375.78;5112876;28;20031;-92
2021/07/14 02:10:10;;;;;;;11.52;3.75;;;;;;;18.22;60.89;98374.25;5115617;27;20485;-92
2021/07/14 02:12:38;;;;;;;9.80;4.13;;;;;;;18.18;61.19;98375.41;5114105;28;20028;-92
2021/07/14 02:15:07;;;;;;;16.07;3.73;;;;;;;18.13;61.75;98387.41;5113548;28;20366;-91
2021/07/14 02:17:38;;;;;;;11.00;3.72;;;;;;;18.08;61.25;98373.41;5115763;28;21447;-92
2021/07/14 02:20:10;;;;;;;14.52;4.47;;;;;;;18.00;62.27;98381.94;5115313;28;20063;-92
2021/07/14 02:22:37;;;;;;;11.82;3.72;;;;;;;17.97;62.23;98384.84;5115025;28;20408;-92
2021/07/14 02:25:03;;;;;;;10.18;3.58;;;;;;;17.81;62.16;98376.88;5115653;28;20047;-92
2021/07/14 02:27:29;;;;;;;12.77;3.70;;;;;;;17.85;62.43;98384.69;5115572;28;20558;-92
2021/07/14 02:29:55;;;;;;;13.30;3.55;;;;;;;17.83;62.37;98378.53;5113586;28;20036;-91
2021/07/14 02:32:23;;;;;;;13.20;3.60;;;;;;;17.86;62.37;98375.63;5115193;28;20111;-91
2021/07/14 02:34:51;;;;;;;10.30;3.95;;;;;;;17.91;62.29;98378.03;5115113;27;20046;-92
2021/07/14 02:37:27;;;;;;;8.70;3.67;;;;;;;17.95;62.01;98371.50;5113980;28;20043;-91
2021/07/14 02:39:57;;;;;;;20.00;4.80;;;;;;;18.01;61.91;98384.56;5114558;28;20039;-92
2021/07/14 02:42:29;;;;;;;13.25;3.97;;;;;;;17.90;62.16;98359.31;5113095;28;20047;-91
2021/07/14 02:44:56;;;;;;;13.45;3.83;;;;;;;18.00;61.78;98365.81;5108041;28;20058;-91
2021/07/14 02:47:23;;;;;;;12.68;4.05;;;;;;;18.11;61.60;98373.19;5113852;28;20067;-92
2021/07/14 02:49:49;;;;;;;12.77;3.35;;;;;;;18.03;61.51;98358.41;5115131;28;20051;-93
2021/07/14 02:52:17;;;;;;;13.93;4.15;;;;;;;18.15;61.22;98370.25;5114942;28;20119;-92
2021/07/14 02:54:47;;;;;;;14.82;4.13;;;;;;;18.20;60.95;98365.41;5114032;28;20043;-91
2021/07/14 02:57:17;;;;;;;14.98;3.33;;;;;;;18.32;60.82;98363.75;5114841;28;20048;-91
2021/07/14 02:59:51;;;;;;;11.02;3.60;;;;;;;18.41;60.55;98370.34;5114808;28;20039;-90
2021/07/14 03:02:19;;;;;;;12.73;3.63;;;;;;;18.47;61.12;98375.34;5112356;28;20771;-91
2021/07/14 03:04:48;;;;;;;17.92;5.63;;;;;;;18.43;60.66;98363.94;5114407;28;20040;-90
2021/07/14 03:07:18;;;;;;;12.15;3.75;;;;;;;18.38;60.46;98368.72;5114608;28;20088;-91
2021/07/14 03:09:46;;;;;;;12.00;3.58;;;;;;;18.22;60.82;98359.94;5114623;28;20552;-91
2021/07/14 03:12:16;;;;;;;14.88;3.92;;;;;;;18.18;61.15;98363.78;5114140;28;20843;-91
2021/07/14 03:14:45;;;;;;;11.77;3.72;;;;;;;18.04;61.85;98362.84;5114242;28;20043;-91
2021/07/14 03:17:13;;;;;;;14.98;3.63;;;;;;;17.97;62.11;98371.41;5112027;28;20442;-90
2021/07/14 03:19:40;;;;;;;11.73;3.80;;;;;;;17.86;62.20;98364.88;5112017;28;20043;-90
2021/07/14 03:22:07;;;;;;;6.20;3.20;;;;;;;17.74;62.60;98365.63;5114458;28;20035;-91
2021/07/14 03:24:34;;;;;;;14.68;4.30;;;;;;;17.68;63.14;98374.06;5114725;28;20039;-92
2021/07/14 03:27:02;;;;;;;12.13;3.63;;;;;;;17.62;63.04;98364.56;5115013;28;20036;-91
2021/07/14 03:29:29;;;;;;;10.45;4.05;;;;;;;17.80;62.68;98376.00;5114624;28;20449;-91
2021/07/14 03:31:55;;;;;;;12.50;4.07;;;;;;;17.97;62.28;98388.41;5111822;28;20044;-92
2021/07/14 03:34:21;;;;;;;11.80;3.75;;;;;;;18.01;62.22;98379.19;5114386;28;20047;-91
2021/07/14 03:36:48;;;;;;;16.88;3.88;;;;;;;18.10;62.19;98372.34;5114186;28;20057;-92
2021/07/14 03:39:15;;;;;;;16.02;4.20;;;;;;;18.19;61.82;98392.41;5114176;28;20044;-91
2021/07/14 03:41:42;;;;;;;12.40;3.30;;;;;;;18.20;61.52;98384.25;5114206;28;20040;-91
2021/07/14 03:44:11;;;;;;;15.30;4.75;;;;;;;18.32;61.01;98389.81;5114015;28;20038;-92
2021/07/14 03:46:38;;;;;;;14.90;3.90;;;;;;;18.32;61.17;98384.41;5112375;28;20038;-91
2021/07/14 03:49:04;;;;;;;11.20;4.07;;;;;;;18.37;61.61;98388.56;5113957;28;20043;-92
2021/07/14 03:51:30;;;;;;;11.15;3.65;;;;;;;18.39;60.86;98389.31;5113736;28;20128;-92
2021/07/14 03:53:58;;;;;;;14.63;3.60;;;;;;;18.35;61.01;98376.16;5114339;28;20043;-91
2021/07/14 03:56:24;;;;;;;15.48;4.05;;;;;;;18.39;61.01;98386.63;5114005;28;20047;-91
2021/07/14 03:58:51;;;;;;;11.38;4.00;;;;;;;18.32;60.97;98387.09;5114049;28;20027;-90
2021/07/14 04:01:20;;;;;;;10.65;3.72;;;;;;;18.35;61.26;98397.69;5111882;28;20044;-92
2021/07/14 04:03:47;;;;;;;13.80;4.82;;;;;;;18.31;61.46;98404.22;5113491;28;20032;-90
2021/07/14 04:06:16;;;;;;;12.57;4.50;;;;;;;18.25;61.68;98392.03;5113354;28;20420;-91
2021/07/14 04:08:44;;;;;;;10.90;4.10;;;;;;;18.33;61.76;98415.78;5114104;28;20047;-93
2021/07/14 04:11:11;;;;;;;14.82;3.85;;;;;;;18.26;61.46;98394.63;5113570;28;20374;-92
2021/07/14 04:13:36;;;;;;;9.50;3.47;;;;;;;18.36;61.50;98413.72;5114015;28;20067;-91
2021/07/14 04:16:02;;;;;;;11.60;3.88;;;;;;;18.45;61.27;98409.56;5111376;28;20059;-90
2021/07/14 04:18:30;;;;;;;12.43;3.40;;;;;;;18.52;61.30;98413.63;5113469;28;20040;-91
2021/07/14 04:20:57;;;;;;;12.38;3.90;;;;;;;18.58;60.79;98402.41;5113480;28;20060;-92
2021/07/14 04:23:23;;;;;;;14.18;3.50;;;;;;;18.78;59.92;98419.13;5113908;28;20471;-92
2021/07/14 04:25:49;;;;;;;17.38;4.88;;;;;;;18.87;59.49;98411.31;5113630;28;20123;-91
2021/07/14 04:28:15;;;;;;;13.07;4.18;;;;;;;19.03;59.05;98418.38;5113289;28;20110;-92
2021/07/14 04:30:41;;;;;;;11.18;3.60;;;;;;;19.14;58.71;98412.25;5111208;28;20028;-91
2021/07/14 04:33:06;;;;;;;15.13;4.38;;;;;;;19.23;58.74;98419.69;5113136;28;20108;-92
2021/07/14 04:35:34;;;;;;;11.30;3.95;;;;;;;19.34;58.64;98435.16;5113242;28;20047;-90
2021/07/14 04:38:00;;;;;;;13.23;3.85;;;;;;;19.29;58.39;98430.94;5113289;28;20058;-91
2021/07/14 04:40:26;;;;;;;13.40;4.10;;;;;;;19.40;58.25;98429.34;5113559;28;20484;-91
2021/07/14 04:42:52;;;;;;;10.95;4.20;;;;;;;19.33;57.62;98419.97;5113174;28;20038;-92
2021/07/14 04:45:18;;;;;;;12.70;3.97;;;;;;;19.47;58.15;98426.13;5111065;28;20396;-92
2021/07/14 04:47:44;;;;;;;12.40;3.90;;;;;;;19.46;57.63;98431.63;5112750;28;20047;-90
2021/07/14 04:50:10;;;;;;;12.30;3.88;;;;;;;19.35;57.95;98415.31;5113185;28;20091;-90
2021/07/14 04:52:37;;;;;;;14.88;3.95;;;;;;;19.41;58.92;98429.25;5112885;28;20032;-92
2021/07/14 04:55:04;;;;;;;13.90;3.88;;;;;;;19.35;57.87;98415.31;5112742;28;20109;-91
2021/07/14 04:57:30;;;;;;;15.88;3.95;;;;;;;19.28;57.76;98404.09;5112810;28;20421;-92
2021/07/14 04:59:56;;;;;;;11.02;4.22;;;;;;;19.41;58.10;98423.84;5111274;28;20032;-92
2021/07/14 05:02:22;;;;;;;9.63;3.95;;;;;;;19.38;58.47;98407.88;5113006;28;20046;-91
2021/07/14 05:04:47;;;;;;;16.13;4.43;;;;;;;19.46;57.88;98421.69;5113125;28;20040;-92
2021/07/14 05:07:13;;;;;;;13.13;4.03;;;;;;;19.46;58.34;98415.44;5113288;28;20047;-92
2021/07/14 05:09:40;;;;;;;15.25;4.50;;;;;;;19.47;58.29;98417.16;5113059;28;20032;-90
2021/07/14 05:12:06;;;;;;;10.77;4.00;;;;;;;19.81;56.55;98407.59;5112857;28;20034;-91
2021/07/14 05:14:32;;;;;;;20.73;5.53;;;;;;;19.83;56.70;98400.25;5112299;28;20043;-91
2021/07/14 05:16:58;;;;;;;8.32;3.75;;;;;;;20.27;56.23;98398.03;5110151;28;20457;-92
2021/07/14 05:19:24;;;;;;;19.65;4.68;;;;;;;20.91;54.04;98397.84;5116089;28;20032;-91
2021/07/14 05:21:50;;;;;;;13.35;4.13;;;;;;;21.35;53.03;98396.28;5116691;28;20032;-92
2021/07/14 05:24:16;;;;;;;13.00;4.20;;;;;;;21.79;51.68;98396.53;5117142;28;20119;-91
2021/07/14 05:26:44;;;;;;;11.70;4.10;;;;;;;21.98;50.73;98377.84;5117192;28;20097;-92
2021/07/14 05:29:09;;;;;;;12.38;4.30;;;;;;;22.13;50.46;98375.75;5117087;28;20039;-91
2021/07/14 05:31:35;;;;;;;12.23;4.40;;;;;;;22.41;49.62;98382.53;5114921;28;20046;-92
2021/07/14 05:34:01;;;;;;;10.57;4.30;;;;;;;22.44;49.44;98384.13;5116854;28;20441;-92
2021/07/14 05:36:27;;;;;;;11.73;4.90;;;;;;;22.37;49.43;98391.03;5116180;28;20043;-91
2021/07/14 05:38:53;;;;;;;16.85;4.60;;;;;;;22.28;49.80;98384.53;5116427;28;20685;-91
2021/07/14 05:41:18;;;;;;;14.90;3.92;;;;;;;22.53;48.80;98397.78;5116555;28;20065;-91
2021/07/14 05:43:47;;;;;;;14.65;4.95;;;;;;;22.76;48.51;98401.28;5116190;28;20036;-91
2021/07/14 05:46:13;;;;;;;16.67;4.10;;;;;;;23.01;48.42;98410.13;5116743;28;20043;-92
2021/07/14 05:48:39;;;;;;;19.92;4.53;;;;;;;23.43;47.64;98414.75;5116486;28;20032;-92
2021/07/14 05:51:04;;;;;;;10.32;4.03;;;;;;;23.21;47.36;98397.59;5115999;28;20090;-91
2021/07/14 05:53:30;;;;;;;14.07;4.10;;;;;;;23.27;47.04;98397.06;5116173;27;20036;-89
2021/07/14 05:55:56;;;;;;;13.63;4.22;;;;;;;23.53;46.60;98404.81;5116091;28;20039;-91
2021/07/14 05:58:22;;;;;;;17.00;4.05;;;;;;;23.50;46.78;98399.66;5116343;28;20063;-92
2021/07/14 06:00:49;;;;;;;11.07;3.85;;;;;;;22.99;47.73;98390.38;5114072;28;20043;-92
2021/07/14 06:03:15;;;;;;;18.80;4.70;;;;;;;22.34;49.78;98411.97;5116424;28;20047;-92
2021/07/14 06:05:41;;;;;;;14.30;3.95;;;;;;;22.44;49.93;98405.78;5116069;28;20104;-91
2021/07/14 06:08:07;;;;;;;17.67;4.20;;;;;;;22.20;51.55;98425.72;5115875;28;20489;-91
2021/07/14 06:10:33;;;;;;;15.57;4.18;;;;;;;21.78;52.83;98430.88;5116665;28;20036;-90
2021/07/14 06:12:59;;;;;;;13.52;4.43;;;;;;;21.75;53.40;98431.09;5115378;28;20042;-92
2021/07/14 06:15:26;;;;;;;10.80;3.85;;;;;;;21.62;54.96;98436.63;5115360;28;20043;-93
2021/07/14 06:17:54;;;;;;;18.17;4.97;;;;;;;21.31;55.73;98428.13;5116303;28;20039;-90
2021/07/14 06:20:21;;;;;;;15.15;4.68;;;;;;;21.22;55.95;98422.56;5115649;28;20047;-91
2021/07/14 06:22:47;;;;;;;16.42;4.80;;;;;;;21.14;56.91;98417.72;5115729;28;20036;-92
2021/07/14 06:25:14;;;;;;;20.42;4.95;;;;;;;21.07;57.36;98427.28;5115552;28;20043;-91
2021/07/14 06:27:39;;;;;;;17.65;4.85;;;;;;;22.02;54.92;98430.78;5115546;28;20113;-92
2021/07/14 06:30:09;;;;;;;17.02;4.45;;;;;;;22.06;54.50;98439.53;5115819;28;20031;-93
2021/07/14 06:32:35;;;;;;;23.40;4.53;;;;;;;22.07;53.87;98419.56;5115566;28;20621;-92
2021/07/14 06:35:03;;;;;;;11.93;4.00;;;;;;;22.54;53.71;98434.72;5115151;28;20043;-91
2021/07/14 06:37:29;;;;;;;14.23;3.92;;;;;;;22.61;53.18;98413.41;5115648;28;20047;-92
2021/07/14 06:39:55;;;;;;;20.55;4.32;;;;;;;23.03;51.72;98428.97;5115491;28;20040;-91
2021/07/14 06:42:21;;;;;;;16.52;4.80;;;;;;;23.08;51.87;98418.63;5114838;28;20089;-92
2021/07/14 06:44:47;;;;;;;18.15;4.38;;;;;;;23.24;51.92;98431.72;5115813;28;20473;-93
2021/07/14 06:47:13;;;;;;;15.65;4.10;;;;;;;23.57;50.93;98423.44;5116009;28;20035;-94
2021/07/14 06:49:39;;;;;;;17.77;3.75;;;;;;;23.52;50.80;98427.53;5116235;28;20063;-94
2021/07/14 06:52:06;;;;;;;15.05;3.67;;;;;;;23.22;51.83;98423.72;5117791;28;20142;-93
2021/07/14 06:54:32;;;;;;;17.95;4.78;;;;;;;23.17;51.80;98425.97;5114597;27;20074;-92
2021/07/14 06:56:58;;;;;;;15.45;3.95;;;;;;;23.06;52.04;98420.59;5116609;28;20071;-95
2021/07/14 06:59:24;;;;;;;14.10;3.53;;;;;;;23.41;50.75;98414.88;5116355;28;20044;-96
2021/07/14 07:01:50;;;;;;;14.70;3.75;;;;;;;23.53;50.06;98424.69;5115932;27;20032;-92
2021/07/14 07:04:16;;;;;;;16.77;4.13;;;;;;;24.01;49.40;98436.88;5115643;28;20081;-95
2021/07/14 07:06:42;;;;;;;14.95;4.15;;;;;;;23.70;49.64;98436.81;5115342;28;20138;-95
2021/07/14 07:09:09;;;;;;;14.30;4.18;;;;;;;23.30;51.25;98436.66;5115619;28;20036;-93
2021/07/14 07:11:36;;;;;;;15.10;4.15;;;;;;;23.33;50.33;98437.25;5115096;28;20044;-92
2021/07/14 07:14:02;;;;;;;10.27;3.63;;;;;;;23.51;49.31;98423.97;5115636;28;20485;-93
2021/07/14 07:16:28;;;;;;;14.30;3.67;;;;;;;23.96;47.35;98442.72;5114613;28;20047;-93
2021/07/14 07:18:54;;;;;;;11.18;3.42;;;;;;;24.31;45.79;98437.88;5115540;28;20047;-92
2021/07/14 07:21:19;;;;;;;12.98;3.50;;;;;;;24.91;43.77;98429.78;5115195;28;20054;-93
2021/07/14 07:23:45;;;;;;;14.13;3.78;;;;;;;25.01;43.94;98414.34;5115707;28;20050;-92
2021/07/14 07:26:13;;;;;;;12.60;3.75;;;;;;;25.25;43.16;98411.25;5115106;28;20044;-93
2021/07/14 07:28:41;;;;;;;14.38;3.35;;;;;;;25.56;43.76;98422.81;5115371;28;20139;-94
2021/07/14 07:31:11;;;;;;;20.52;4.72;;;;;;;25.44;44.97;98418.53;5113217;28;20055;-94
2021/07/14 07:33:45;;;;;;;16.90;4.10;;;;;;;25.52;44.17;98425.97;5100749;28;20051;-94
2021/07/14 07:36:12;;;;;;;17.33;4.10;;;;;;;25.98;43.66;98422.50;5095561;28;20044;-93
2021/07/14 07:38:40;;;;;;;18.30;4.07;;;;;;;25.93;42.86;98423.94;5095239;28;20071;-94
2021/07/14 07:41:06;;;;;;;16.50;3.70;;;;;;;26.18;42.77;98426.00;5090744;28;20478;-95
2021/07/14 07:43:34;;;;;;;16.38;3.60;;;;;;;25.81;42.44;98412.31;5095628;28;20130;-93
2021/07/14 07:46:03;;;;;;;15.23;5.22;;;;;;;26.00;42.66;98420.47;5095460;28;20485;-94
2021/07/14 07:48:31;;;;;;;13.52;3.47;;;;;;;25.91;42.77;98429.53;5076187;28;20051;-92
2021/07/14 07:50:58;;;;;;;10.85;3.42;;;;;;;25.35;43.83;98417.53;5087546;28;20044;-93
2021/07/14 07:53:25;;;;;;;12.75;3.80;;;;;;;24.91;44.82;98427.06;5114016;28;20122;-93
2021/07/14 07:55:52;;;;;;;15.10;3.60;;;;;;;24.95;44.77;98428.50;5098732;28;20060;-94
2021/07/14 07:58:19;;;;;;;21.70;3.78;;;;;;;24.71;45.64;98435.19;5097284;28;20048;-94
2021/07/14 08:00:51;;;;;;;8.57;3.17;;;;;;;24.30;44.76;98437.00;5095570;28;20043;-94
2021/07/14 08:03:18;;;;;;;10.73;3.35;;;;;;;23.83;44.07;98443.91;5093152;28;20440;-94
2021/07/14 08:05:44;;;;;;;11.38;3.45;;;;;;;23.56;45.73;98442.56;5095538;28;20119;-93
2021/07/14 08:08:11;;;;;;;17.20;4.43;;;;;;;23.03;47.91;98428.97;5095740;28;20071;-95
2021/07/14 08:10:38;;;;;;;9.20;3.30;;;;;;;23.15;48.14;98442.38;5095393;28;20079;-93
2021/07/14 08:13:05;;;;;;;16.33;3.60;;;;;;;23.46;48.21;98452.47;5094378;28;20040;-94
2021/07/14 08:15:32;;;;;;;15.40;3.70;;;;;;;24.37;45.82;98431.88;5100914;28;20062;-94
2021/07/14 08:17:59;;;;;;;13.27;3.60;;;;;;;25.30;43.54;98440.75;5109726;28;20075;-93
2021/07/14 08:20:25;;;;;;;17.02;4.28;;;;;;;25.15;44.31;98456.59;5104645;28;20070;-94
2021/07/14 08:22:53;;;;;;;9.95;3.33;;;;;;;25.18;44.25;98454.47;5105237;28;20493;-93
2021/07/14 08:25:19;;;;;;;15.70;4.25;;;;;;;25.33;43.99;98448.59;5095314;28;20040;-94
2021/07/14 08:27:45;;;;;;;10.63;3.33;;;;;;;25.50;41.86;98447.88;5110647;28;20044;-93
2021/07/14 08:30:12;;;;;;;12.82;3.58;;;;;;;24.79;43.62;98437.22;5093009;28;20645;-93
2021/07/14 08:32:39;;;;;;;17.60;3.70;;;;;;;24.33;45.05;98442.19;5113464;28;20048;-94
2021/07/14 08:35:09;;;;;;;18.60;3.45;;;;;;;24.03;44.86;98453.03;5115961;28;20073;-93
2021/07/14 08:37:35;;;;;;;17.35;3.67;;;;;;;24.23;45.00;98462.16;5116125;28;20040;-94
2021/07/14 08:40:01;;;;;;;11.95;3.60;;;;;;;24.45;45.02;98451.09;5116078;28;20039;-95
2021/07/14 08:42:27;;;;;;;15.13;3.65;;;;;;;25.05;43.07;98461.16;5116123;28;20488;-93
2021/07/14 08:44:54;;;;;;;12.07;3.70;;;;;;;26.03;41.20;98449.28;5116102;28;20040;-94
2021/07/14 08:47:21;;;;;;;14.40;3.67;;;;;;;25.41;42.45;98452.34;5115890;28;20039;-94
2021/07/14 08:49:49;;;;;;;11.23;3.38;;;;;;;24.85;42.76;98430.34;5108970;28;20039;-93
2021/07/14 08:52:17;;;;;;;9.45;3.10;;;;;;;25.03;42.39;98423.22;5116782;28;20059;-93
2021/07/14 08:54:43;;;;;;;12.25;3.40;;;;;;;25.51;41.48;98444.19;5120299;28;20547;-93
2021/07/14 08:57:10;;;;;;;12.55;4.82;;;;;;;25.91;40.90;98445.00;5119393;28;20385;-93
2021/07/14 08:59:37;;;;;;;12.75;4.22;;;;;;;26.52;39.76;98416.38;5119395;28;20040;-93
2021/07/14 09:02:03;;;;;;;12.10;3.83;;;;;;;27.30;38.08;98424.97;5120501;28;20047;-93
2021/07/14 09:04:29;;;;;;;11.75;3.50;;;;;;;26.22;39.03;98418.41;5120765;28;20065;-95
2021/07/14 09:06:56;;;;;;;14.40;3.75;;;;;;;26.69;39.49;98434.69;5119990;28;20036;-95
2021/07/14 09:09:23;;;;;;;12.35;3.58;;;;;;;26.80;38.52;98431.75;5119184;28;20040;-93
2021/07/14 09:11:52;;;;;;;11.38;3.45;;;;;;;27.09;38.43;98419.81;5111336;28;20040;-92
2021/07/14 09:14:29;;;;;;;11.98;3.53;;;;;;;27.63;37.12;98428.88;5120798;28;20160;-94
2021/07/14 09:16:55;;;;;;;12.68;3.17;;;;;;;28.09;36.08;98425.13;5119792;28;20126;-94
2021/07/14 09:19:24;;;;;;;12.30;3.42;;;;;;;27.77;35.93;98423.84;5124447;28;20036;-94
2021/07/14 09:21:51;;;;;;;13.57;3.08;;;;;;;27.84;36.77;98433.09;5124149;28;20032;-94
2021/07/14 09:24:24;;;;;;;11.30;3.30;;;;;;;26.93;37.76;98425.06;5121727;28;20040;-94
2021/07/14 09:26:51;;;;;;;14.70;3.83;;;;;;;27.58;36.93;98420.28;5120722;28;20515;-94
2021/07/14 09:29:17;;;;;;;13.77;3.45;;;;;;;27.99;36.18;98436.16;5120713;28;20113;-94
2021/07/14 09:31:44;;;;;;;11.43;2.72;;;;;;;27.51;36.22;98442.94;5120424;28;20122;-93
2021/07/14 09:34:24;;;;;;;13.63;3.58;;;;;;;26.12;38.78;98453.00;5120679;28;20588;-95
2021/07/14 09:36:51;;;;;;;12.70;3.70;;;;;;;26.65;38.29;98460.56;5120565;28;20122;-95
2021/07/14 09:39:30;;;;;;;9.07;3.10;;;;;;;27.47;36.00;98442.38;5120149;28;20092;-92
2021/07/14 09:42:01;;;;;;;13.63;3.13;;;;;;;27.28;36.95;98456.19;5117360;28;20055;-93
2021/07/14 09:44:27;;;;;;;10.27;3.20;;;;;;;27.31;37.02;98448.53;5115745;28;20118;-93
2021/07/14 09:47:18;;;;;;;8.85;3.08;;;;;;;27.58;36.78;98458.50;5117622;28;20075;-92
2021/07/14 09:49:44;;;;;;;14.93;3.30;;;;;;;27.43;36.40;98439.13;5119148;28;20052;-93
2021/07/14 09:52:12;;;;;;;10.25;3.22;;;;;;;27.13;37.15;98443.06;5118593;28;20512;-93
2021/07/14 09:54:40;;;;;;;11.20;3.40;;;;;;;26.13;38.94;98460.16;5119260;28;20442;-94
2021/07/14 09:57:14;;;;;;;13.10;3.42;;;;;;;26.22;39.37;98442.94;5118724;28;20055;-93
2021/07/14 09:59:40;;;;;;;13.05;4.15;;;;;;;27.33;36.70;98453.84;5118939;28;20048;-92
2021/07/14 10:02:11;;;;;;;9.57;3.55;;;;;;;26.92;36.06;98439.75;5117445;28;20039;-93
2021/07/14 10:04:37;;;;;;;11.00;3.10;;;;;;;26.85;36.47;98450.41;5118494;28;20043;-93
2021/07/14 10:07:05;;;;;;;11.13;3.50;;;;;;;27.35;35.59;98446.38;5118165;28;20542;-93
2021/07/14 10:09:31;;;;;;;7.28;2.72;;;;;;;27.94;34.22;98450.31;5113738;28;20032;-91
2021/07/14 10:12:27;;;;;;;8.55;2.90;;;;;;;27.74;34.90;98454.22;5114016;28;20061;-93
2021/07/14 10:14:53;;;;;;;7.95;2.88;;;;;;;28.20;34.79;98444.84;5113385;28;20040;-93
2021/07/14 10:17:35;;;;;;;10.70;2.92;;;;;;;27.76;35.49;98427.56;5116967;28;20036;-93
2021/07/14 10:20:25;;;;;;;12.35;3.50;;;;;;;27.47;35.38;98423.25;5116563;28;20054;-91
2021/07/14 10:22:55;;;;;;;13.07;3.20;;;;;;;27.48;35.87;98438.63;5118380;28;20043;-94
2021/07/14 10:25:22;;;;;;;11.60;3.08;;;;;;;28.29;34.42;98426.59;5111275;28;20047;-93
2021/07/14 10:27:50;;;;;;;7.22;2.92;;;;;;;28.54;34.09;98421.28;5116950;28;20157;-93
2021/07/14 10:30:18;;;;;;;15.43;3.42;;;;;;;28.67;33.72;98410.75;5115002;28;20469;-94
2021/07/14 10:32:45;;;;;;;11.63;3.37;;;;;;;28.54;34.14;98426.75;5097938;28;20542;-95
2021/07/14 10:35:14;;;;;;;10.38;3.35;;;;;;;27.78;35.66;98422.81;5096180;28;20528;-92
2021/07/14 10:37:42;;;;;;;14.23;3.78;;;;;;;27.80;35.70;98416.19;5095422;28;20052;-93
2021/07/14 10:40:12;;;;;;;9.13;3.30;;;;;;;28.09;35.62;98427.88;5097549;28;20146;-92
2021/07/14 10:42:41;;;;;;;9.43;3.25;;;;;;;28.20;35.42;98424.84;5096927;28;20553;-94
2021/07/14 10:45:11;;;;;;;8.73;3.38;;;;;;;28.78;34.14;98429.59;5094357;28;20071;-92
2021/07/14 10:47:37;;;;;;;9.35;2.92;;;;;;;28.61;34.74;98436.88;5090985;28;20044;-92
2021/07/14 10:50:04;;;;;;;11.43;3.47;;;;;;;28.46;35.09;98447.53;5095078;28;20043;-92
2021/07/14 10:52:30;;;;;;;10.68;3.40;;;;;;;27.18;37.14;98437.13;5096599;28;20397;-94
2021/07/14 10:54:57;;;;;;;10.75;3.78;;;;;;;27.32;37.66;98441.22;5096375;28;20504;-93
2021/07/14 10:57:23;;;;;;;9.82;3.50;;;;;;;27.12;37.37;98422.22;5095724;28;20041;-92
2021/07/14 10:59:51;;;;;;;12.43;3.50;;;;;;;27.14;37.15;98439.28;5096102;28;20071;-92
2021/07/14 11:02:38;;;;;;;10.98;3.72;;;;;;;27.98;35.76;98440.78;5095059;28;20055;-92
2021/07/14 11:05:05;;;;;;;10.75;3.53;;;;;;;27.60;36.54;98422.84;5095521;28;20055;-93
2021/07/14 11:07:39;;;;;;;11.82;4.13;;;;;;;27.92;36.21;98433.22;5097555;28;20109;-94
2021/07/14 11:10:25;;;;;;;15.27;4.18;;;;;;;28.64;36.05;98439.28;5098638;28;20513;-94
2021/07/14 11:12:51;;;;;;;13.52;5.47;;;;;;;28.67;35.57;98405.28;5096651;28;20485;-95
2021/07/14 11:15:28;;;;;;;10.93;4.97;;;;;;;29.51;34.30;98425.28;5095324;28;20044;-95
2021/07/14 11:17:56;;;;;;;9.50;4.28;;;;;;;28.74;35.10;98414.53;5098739;28;20055;-94
2021/07/14 11:20:22;;;;;;;13.90;4.05;;;;;;;28.59;35.35;98418.91;5097326;28;20044;-94
2021/07/14 11:22:49;;;;;;;14.60;3.65;;;;;;;29.17;33.88;98409.88;5097869;28;20489;-95
2021/07/14 11:25:27;;;;;;;8.13;3.23;;;;;;;28.79;34.45;98424.97;5097350;28;20101;-95
2021/07/14 11:28:07;;;;;;;14.87;4.00;;;;;;;29.25;33.91;98409.84;5098382;28;20265;-95
2021/07/14 11:30:38;;;;;;;11.15;3.35;;;;;;;29.31;33.84;98407.50;5097219;28;20048;-95
2021/07/14 11:33:06;;;;;;;11.02;3.75;;;;;;;29.81;33.60;98421.03;5097578;28;20040;-92
2021/07/14 11:35:45;;;;;;;16.35;4.07;;;;;;;30.10;32.48;98416.88;5095884;28;20044;-94
2021/07/14 11:38:16;;;;;;;9.55;3.85;;;;;;;30.06;31.67;98410.91;5095235;28;20040;-94
2021/07/14 11:40:45;;;;;;;11.77;3.85;;;;;;;30.10;30.74;98417.75;5096201;28;20102;-96
2021/07/14 11:43:23;;;;;;;10.13;3.33;;;;;;;30.08;31.77;98414.31;5094226;28;20144;-93
2021/07/14 11:45:51;;;;;;;11.75;3.88;;;;;;;29.42;32.11;98401.66;5096008;28;20040;-93